Address 0x8975dd71a2905aefdf66e3a8d22c238bbf602822

 
 
Txn Hash
Block
From
To
Value [Txn Fee]
0x1b5510f71a023356a8a25036231cdd6937576ff5d7aacf6755b13db64889922d94538502021-07-25 2:43:477 days 14 hrs ago0x8975dd71a2905aefdf66e3a8d22c238bbf602822OUT Binance: BUSD Stablecoin0 BNB0.000105695
0x569f7d95eedd2b23940c5a406061db3e08f86e76c425ac7ccf3f7ca0ebb5680694538362021-07-25 2:43:057 days 14 hrs ago0x8975dd71a2905aefdf66e3a8d22c238bbf602822OUT PancakeSwap: CAKE Token0 BNB0.000105695
0x7e820b8b0916f92b87e963c857d6488f720951a12c59489783cbd02a00b8641494538122021-07-25 2:41:537 days 14 hrs ago0x8975dd71a2905aefdf66e3a8d22c238bbf602822OUT 0xdc2bbb0d33e0e7dea9f5b98f46edbac823586a0c0 BNB0.001041005
0x2118a6f59b615a448af409ac77b1c6c68626acdec3e41dc2e1f2e450fcff1d9d94432242021-07-24 17:51:387 days 23 hrs ago0x8975dd71a2905aefdf66e3a8d22c238bbf602822OUT Pancake Bunny: Bunny Maximizer (Earn BUNNY)0 BNB0.000965105
0x498ca47c25134b985cb09c235630ddf813586373972b4dc38a954ea1e714d86f94431842021-07-24 17:49:387 days 23 hrs ago0x8975dd71a2905aefdf66e3a8d22c238bbf602822OUT 0xdc2bbb0d33e0e7dea9f5b98f46edbac823586a0c0 BNB0.001040165
0x84df22af47adf24086bf6c05b036272cec371891de261b1b4c1ad7680c18392094431472021-07-24 17:47:477 days 23 hrs ago0x8975dd71a2905aefdf66e3a8d22c238bbf602822OUT PancakeSwap: CAKE Token0 BNB0.00022215
0xe45a3e9b39c12cd8f8efb1da466cdcc7f75e6f8886dece7df5878708b7589e3c94430742021-07-24 17:44:087 days 23 hrs ago0x8975dd71a2905aefdf66e3a8d22c238bbf602822OUT PancakeSwap: Auto CAKE Syrup Pool0 BNB0.00122207
0x85e50f7c6aaec2475c4f61a63bed15a341f6079dd7feedf0110cd68417efa97d94429932021-07-24 17:40:057 days 23 hrs ago0x8975dd71a2905aefdf66e3a8d22c238bbf602822OUT 0xdc2bbb0d33e0e7dea9f5b98f46edbac823586a0c0 BNB0.001101265
0xb94009cb37f2ca934698ff2423a2c769ff7c1386819dbdae7f69f700d0b5ee7494132702021-07-23 16:40:159 days 51 mins ago0x8975dd71a2905aefdf66e3a8d22c238bbf602822OUT Pancake Bunny: BUNNY Token0 BNB0.000180695
0xa2a086b4a3c7b74efc87595e9e3e9262b13f41c56586ecf6a1ba09128ea7af3494129562021-07-23 16:24:279 days 1 hr ago0x8975dd71a2905aefdf66e3a8d22c238bbf602822OUT 0xdc2bbb0d33e0e7dea9f5b98f46edbac823586a0c0 BNB0.001041305
0x8ece8873e55c6d26ed90aa17cb67b4a38628bfae78b56f3874354d4b44c2f2b494127162021-07-23 16:12:279 days 1 hr ago0x8975dd71a2905aefdf66e3a8d22c238bbf602822OUT 0xdc2bbb0d33e0e7dea9f5b98f46edbac823586a0c0 BNB0.000905365
0x6b18ea39d3274908b467a1af0167de94bfe68853b9f3fda853985e845cdaf2f794126852021-07-23 16:10:549 days 1 hr ago0x8975dd71a2905aefdf66e3a8d22c238bbf602822OUT BUSD-T Stablecoin0 BNB0.00022203
0xbf4494a1a6547678d011e1f06dcd5d6bf420cc053cc7229bfc6729c87f14070194120542021-07-23 15:39:059 days 1 hr ago0x8975dd71a2905aefdf66e3a8d22c238bbf602822OUT 0xdc2bbb0d33e0e7dea9f5b98f46edbac823586a0c0 BNB0.001041005
0x186e2630941a31435e173a601dd73913502353980cf6bf856447b7a4caf17fc294120052021-07-23 15:36:389 days 1 hr ago0x8975dd71a2905aefdf66e3a8d22c238bbf602822OUT Pancake Bunny: BUNNY Token0 BNB0.000222035
0x59e33c537ace298cc0196ee6c9792f847735e14eb958a4c53ed12b8042a8e48394118962021-07-23 15:30:409 days 2 hrs ago0x8975dd71a2905aefdf66e3a8d22c238bbf602822OUT Pancake Bunny: Bunny Maximizer (Earn BUNNY)0 BNB0.0005745
0x778243d497f3c3f14f4b65a0bb14cf853792930019b813f379c592fbd9f19a4a94092432021-07-23 13:15:569 days 4 hrs ago0x8975dd71a2905aefdf66e3a8d22c238bbf602822OUT PancakeSwap: CAKE Token0 BNB0.00022215
0xab807d76b094e9fb7df3c143d040e64e7e2b7e3723e49a6b73b9b75c3671dde693347152021-07-20 23:06:0411 days 18 hrs ago0x8975dd71a2905aefdf66e3a8d22c238bbf602822OUT BabyDogeCoin: BabyDoge Token0 BNB0.00103175
0x28c8130d7cc612ae29d8369f11b1ed847bb3fa00e0ba102bf8487762ce0de8e093227522021-07-20 13:07:5412 days 4 hrs ago0x8975dd71a2905aefdf66e3a8d22c238bbf602822OUT Pancake Bunny: Bunny Maximizer (Earn BUNNY)0 BNB0.000707655
0x2a457c7dac7fa7a976dc8f75f1f1d482e86e82e9fafd8ef30eab1f45149654da93227262021-07-20 13:06:3612 days 4 hrs ago0x8975dd71a2905aefdf66e3a8d22c238bbf602822OUT 0xdc2bbb0d33e0e7dea9f5b98f46edbac823586a0c0 BNB0.001041245
0xe78e5c8fee9d5ad5216d1223925da7767e4cec19a88c32fc8d4b9e711227a6ab92975162021-07-19 16:04:2813 days 1 hr ago0x8975dd71a2905aefdf66e3a8d22c238bbf602822OUT Binance: BUSD Stablecoin0 BNB0.00022203
0xd8613d0d4a8fb542065d5e411f2fae53574e358e703da7bde4e7b350152dce3992699102021-07-18 17:02:5414 days 28 mins ago0x8975dd71a2905aefdf66e3a8d22c238bbf602822OUT 0x2c98c308dced995fbf675f0b7392b68dc1aaa3b10 BNB0.000221805
0xcb5234d126e047fb7d6734bf6d46adcab373ab9cf18b4b719ac93e5629f0ec5b92698622021-07-18 17:00:3014 days 31 mins ago0x8975dd71a2905aefdf66e3a8d22c238bbf602822OUT 0x536372b3102e05ca9faf123917e5f2478e6ff1a70 BNB0.000221805
0x326e6d133b56d83b82003f1f60ee96bc8111b36d2eaae90ac8075f2b219ad55392686242021-07-18 15:58:3614 days 1 hr ago0x8975dd71a2905aefdf66e3a8d22c238bbf602822OUT Pancake Bunny: Bunny Maximizer (Earn BUNNY)0 BNB0.000932655
0x6d8b76a20d59f2a61047a9a4fa20306b87b4cdede158e3bcf9c67694bae6350992686022021-07-18 15:57:3014 days 1 hr ago0x8975dd71a2905aefdf66e3a8d22c238bbf602822OUT 0xdc2bbb0d33e0e7dea9f5b98f46edbac823586a0c0 BNB0.00146266
0x72e4a7656ff6ce8449be50513abefd2e4229c6fbd79ffb89fed1dd91cf44976092685772021-07-18 15:56:1514 days 1 hr ago0x8975dd71a2905aefdf66e3a8d22c238bbf602822OUT Pancake Bunny: BUNNY Token0 BNB0.000222035
[ Download CSV Export 
Latest 6 internal transactions
Parent Txn Hash Block From To Value
0x6ef8dc6033febdd10a38d88370bf58852620df131bc1b98a05fabedf445e84a990322082021-07-10 10:54:0622 days 6 hrs ago BSC: Token Hub0x8975dd71a2905aefdf66e3a8d22c238bbf6028220.033 BNB
0x7eea9e374b0317e66b58169a93ce64dda0445390ec638f217f10961565e5aa5284098262021-06-18 17:29:2244 days 2 mins ago BSC: Token Hub0x8975dd71a2905aefdf66e3a8d22c238bbf6028220.04557238 BNB
0x12794c40e065f532113aa861b270512463b0b602b2987efcd0dcf5fc248db68870353352021-05-01 5:18:5592 days 12 hrs ago BSC: Token Hub0x8975dd71a2905aefdf66e3a8d22c238bbf6028220.033 BNB
0x76b7285a623a6c816493f5be9e32c1254ad0219ec7aeeb2e29e63961c5da2dee69328282021-04-27 15:00:4696 days 2 hrs ago BSC: Token Hub0x8975dd71a2905aefdf66e3a8d22c238bbf6028220.08 BNB
0xf3948503b3f5d464cb5d137d09f65aef2322475b87352f0361d4ce4714ec5e8269325602021-04-27 14:46:3896 days 2 hrs ago BSC: Token Hub0x8975dd71a2905aefdf66e3a8d22c238bbf6028220.00938104 BNB
0x44266c87341b3cf17afff32f61ca770420e83e8b1425a337d4404d2c3714651569222712021-04-27 6:05:2196 days 11 hrs ago BSC: Token Hub0x8975dd71a2905aefdf66e3a8d22c238bbf6028220.06 BNB
[ Download CSV Export 
Loading

Contract Name:
0 BNB

Compiler Version
0

Optimization Enabled:
0 BNB

Other Settings:
-NA-
Block Transaction Gas Used Reward
Age Block Fee Address BC Fee Address Voting Power Jailed Incoming
Block Uncle Number Difficulty Gas Used Reward
Loading
Loading
Make sure to use the "Vote Down" button for any spammy posts, and the "Vote Up" for interesting conversations.